sensor_id;sensor_type;location;lat;lon;timestamp;P1;durP1;ratioP1;P2;durP2;ratioP2
32242;SDS011;18731;42.830;24.390;2023-01-29T04:01:08;23.88;;;12.18;;
32242;SDS011;18731;42.830;24.390;2023-01-29T04:03:46;27.38;;;14.13;;
32242;SDS011;18731;42.830;24.390;2023-01-29T04:06:21;29.30;;;14.95;;
32242;SDS011;18731;42.830;24.390;2023-01-29T04:08:54;18.25;;;11.77;;
32242;SDS011;18731;42.830;24.390;2023-01-29T04:11:27;19.20;;;11.80;;
32242;SDS011;18731;42.830;24.390;2023-01-29T04:13:55;18.23;;;11.68;;
32242;SDS011;18731;42.830;24.390;2023-01-29T04:16:26;17.48;;;10.48;;
32242;SDS011;18731;42.830;24.390;2023-01-29T04:18:57;16.90;;;10.07;;
32242;SDS011;18731;42.830;24.390;2023-01-29T04:21:24;15.05;;;9.52;;
32242;SDS011;18731;42.830;24.390;2023-01-29T04:23:51;14.18;;;9.77;;
32242;SDS011;18731;42.830;24.390;2023-01-29T04:31:38;14.57;;;8.63;;
32242;SDS011;18731;42.830;24.390;2023-01-29T04:34:15;16.90;;;10.48;;
32242;SDS011;18731;42.830;24.390;2023-01-29T04:37:17;15.90;;;10.00;;
32242;SDS011;18731;42.830;24.390;2023-01-29T04:39:53;16.27;;;8.88;;
32242;SDS011;18731;42.830;24.390;2023-01-29T04:42:42;11.07;;;7.10;;
32242;SDS011;18731;42.830;24.390;2023-01-29T04:46:12;16.95;;;10.20;;
32242;SDS011;18731;42.830;24.390;2023-01-29T04:59:57;13.68;;;8.68;;
32242;SDS011;18731;42.830;24.390;2023-01-29T05:04:57;16.48;;;9.57;;
32242;SDS011;18731;42.830;24.390;2023-01-29T05:07:23;16.92;;;9.15;;
32242;SDS011;18731;42.830;24.390;2023-01-29T05:09:51;17.95;;;10.82;;
32242;SDS011;18731;42.830;24.390;2023-01-29T05:12:17;20.38;;;11.27;;
32242;SDS011;18731;42.830;24.390;2023-01-29T05:14:43;20.88;;;11.65;;
32242;SDS011;18731;42.830;24.390;2023-01-29T05:17:13;18.42;;;11.45;;
32242;SDS011;18731;42.830;24.390;2023-01-29T05:19:41;17.70;;;10.57;;
32242;SDS011;18731;42.830;24.390;2023-01-29T05:22:08;16.67;;;9.75;;
32242;SDS011;18731;42.830;24.390;2023-01-29T05:24:37;19.38;;;10.85;;
32242;SDS011;18731;42.830;24.390;2023-01-29T05:27:03;17.73;;;9.35;;
32242;SDS011;18731;42.830;24.390;2023-01-29T05:29:47;24.00;;;12.23;;
32242;SDS011;18731;42.830;24.390;2023-01-29T05:32:13;24.42;;;13.35;;
32242;SDS011;18731;42.830;24.390;2023-01-29T05:34:40;19.95;;;10.98;;
32242;SDS011;18731;42.830;24.390;2023-01-29T05:37:06;21.58;;;11.10;;
32242;SDS011;18731;42.830;24.390;2023-01-29T05:39:33;20.48;;;10.52;;
32242;SDS011;18731;42.830;24.390;2023-01-29T05:41:58;18.98;;;10.07;;
32242;SDS011;18731;42.830;24.390;2023-01-29T05:44:24;19.45;;;10.93;;
32242;SDS011;18731;42.830;24.390;2023-01-29T05:46:50;24.67;;;13.02;;
32242;SDS011;18731;42.830;24.390;2023-01-29T05:49:18;18.27;;;10.55;;
32242;SDS011;18731;42.830;24.390;2023-01-29T05:51:44;20.88;;;11.80;;
32242;SDS011;18731;42.830;24.390;2023-01-29T05:54:11;22.17;;;12.68;;
32242;SDS011;18731;42.830;24.390;2023-01-29T05:56:37;22.73;;;12.23;;
32242;SDS011;18731;42.830;24.390;2023-01-29T05:59:04;23.30;;;10.88;;
32242;SDS011;18731;42.830;24.390;2023-01-29T06:01:30;19.33;;;10.95;;
32242;SDS011;18731;42.830;24.390;2023-01-29T06:03:55;16.23;;;8.40;;
32242;SDS011;18731;42.830;24.390;2023-01-29T06:06:21;16.23;;;8.43;;
32242;SDS011;18731;42.830;24.390;2023-01-29T06:08:47;20.80;;;10.88;;
32242;SDS011;18731;42.830;24.390;2023-01-29T06:11:13;16.67;;;8.95;;
32242;SDS011;18731;42.830;24.390;2023-01-29T06:13:39;51.22;;;22.70;;
32242;SDS011;18731;42.830;24.390;2023-01-29T06:16:05;63.58;;;26.25;;
32242;SDS011;18731;42.830;24.390;2023-01-29T06:18:32;67.45;;;28.80;;
32242;SDS011;18731;42.830;24.390;2023-01-29T06:21:04;84.25;;;32.40;;
32242;SDS011;18731;42.830;24.390;2023-01-29T06:23:32;86.82;;;33.05;;
32242;SDS011;18731;42.830;24.390;2023-01-29T06:26:08;106.47;;;39.35;;
32242;SDS011;18731;42.830;24.390;2023-01-29T06:28:37;66.13;;;26.25;;
32242;SDS011;18731;42.830;24.390;2023-01-29T06:31:03;67.50;;;25.35;;
32242;SDS011;18731;42.830;24.390;2023-01-29T06:33:29;55.35;;;23.83;;
32242;SDS011;18731;42.830;24.390;2023-01-29T06:35:56;52.22;;;23.92;;
32242;SDS011;18731;42.830;24.390;2023-01-29T06:38:25;37.90;;;17.90;;
32242;SDS011;18731;42.830;24.390;2023-01-29T06:40:51;46.80;;;20.23;;
32242;SDS011;18731;42.830;24.390;2023-01-29T06:43:18;39.85;;;18.08;;
32242;SDS011;18731;42.830;24.390;2023-01-29T06:45:48;32.13;;;16.35;;
32242;SDS011;18731;42.830;24.390;2023-01-29T06:48:20;32.97;;;17.17;;
32242;SDS011;18731;42.830;24.390;2023-01-29T06:50:46;30.80;;;15.90;;
32242;SDS011;18731;42.830;24.390;2023-01-29T06:53:13;33.15;;;16.58;;
32242;SDS011;18731;42.830;24.390;2023-01-29T06:55:40;38.08;;;18.52;;
32242;SDS011;18731;42.830;24.390;2023-01-29T06:58:07;37.25;;;17.60;;
32242;SDS011;18731;42.830;24.390;2023-01-29T07:00:34;43.67;;;19.73;;
32242;SDS011;18731;42.830;24.390;2023-01-29T07:03:00;44.78;;;21.48;;
32242;SDS011;18731;42.830;24.390;2023-01-29T07:05:26;41.80;;;21.42;;
32242;SDS011;18731;42.830;24.390;2023-01-29T07:07:52;33.95;;;17.33;;
32242;SDS011;18731;42.830;24.390;2023-01-29T07:10:18;29.65;;;15.38;;
32242;SDS011;18731;42.830;24.390;2023-01-29T07:12:44;25.00;;;14.05;;
32242;SDS011;18731;42.830;24.390;2023-01-29T07:15:09;20.17;;;12.23;;
32242;SDS011;18731;42.830;24.390;2023-01-29T07:17:37;18.85;;;11.50;;
32242;SDS011;18731;42.830;24.390;2023-01-29T07:20:03;17.40;;;11.00;;
32242;SDS011;18731;42.830;24.390;2023-01-29T07:22:30;20.08;;;11.40;;
32242;SDS011;18731;42.830;24.390;2023-01-29T07:24:56;18.17;;;10.77;;
32242;SDS011;18731;42.830;24.390;2023-01-29T07:27:22;22.35;;;12.70;;
32242;SDS011;18731;42.830;24.390;2023-01-29T07:29:47;17.70;;;9.98;;
32242;SDS011;18731;42.830;24.390;2023-01-29T07:32:13;20.20;;;11.75;;
32242;SDS011;18731;42.830;24.390;2023-01-29T07:34:39;17.30;;;10.57;;
32242;SDS011;18731;42.830;24.390;2023-01-29T07:37:04;19.10;;;11.57;;
32242;SDS011;18731;42.830;24.390;2023-01-29T07:39:30;17.33;;;10.73;;
32242;SDS011;18731;42.830;24.390;2023-01-29T07:41:56;18.98;;;11.75;;
32242;SDS011;18731;42.830;24.390;2023-01-29T07:44:22;21.30;;;12.75;;
32242;SDS011;18731;42.830;24.390;2023-01-29T07:46:48;20.70;;;12.60;;
32242;SDS011;18731;42.830;24.390;2023-01-29T07:49:14;20.83;;;13.35;;
32242;SDS011;18731;42.830;24.390;2023-01-29T07:51:40;22.02;;;13.45;;
32242;SDS011;18731;42.830;24.390;2023-01-29T07:54:06;21.02;;;12.50;;
32242;SDS011;18731;42.830;24.390;2023-01-29T07:56:31;21.75;;;12.73;;
32242;SDS011;18731;42.830;24.390;2023-01-29T07:58:57;18.52;;;12.00;;
32242;SDS011;18731;42.830;24.390;2023-01-29T08:01:23;19.10;;;11.18;;
32242;SDS011;18731;42.830;24.390;2023-01-29T08:03:48;20.25;;;11.90;;
32242;SDS011;18731;42.830;24.390;2023-01-29T08:06:14;29.52;;;14.57;;
32242;SDS011;18731;42.830;24.390;2023-01-29T08:08:40;47.00;;;18.95;;
32242;SDS011;18731;42.830;24.390;2023-01-29T08:11:05;194.75;;;50.25;;
32242;SDS011;18731;42.830;24.390;2023-01-29T08:13:31;112.07;;;30.15;;
32242;SDS011;18731;42.830;24.390;2023-01-29T08:16:01;66.30;;;20.98;;
32242;SDS011;18731;42.830;24.390;2023-01-29T08:18:27;19.30;;;7.15;;
32242;SDS011;18731;42.830;24.390;2023-01-29T08:20:57;24.23;;;8.23;;
32242;SDS011;18731;42.830;24.390;2023-01-29T08:23:26;11.48;;;4.95;;
32242;SDS011;18731;42.830;24.390;2023-01-29T08:25:52;7.38;;;3.50;;
32242;SDS011;18731;42.830;24.390;2023-01-29T08:28:17;4.72;;;3.35;;
32242;SDS011;18731;42.830;24.390;2023-01-29T08:30:43;5.50;;;3.30;;
32242;SDS011;18731;42.830;24.390;2023-01-29T08:33:09;4.55;;;3.10;;
32242;SDS011;18731;42.830;24.390;2023-01-29T08:35:35;7.10;;;3.58;;
32242;SDS011;18731;42.830;24.390;2023-01-29T08:38:01;7.07;;;3.90;;
32242;SDS011;18731;42.830;24.390;2023-01-29T08:40:29;4.82;;;3.25;;
32242;SDS011;18731;42.830;24.390;2023-01-29T08:42:59;4.22;;;3.25;;
32242;SDS011;18731;42.830;24.390;2023-01-29T08:45:26;3.88;;;3.10;;
32242;SDS011;18731;42.830;24.390;2023-01-29T08:47:52;3.92;;;2.78;;
32242;SDS011;18731;42.830;24.390;2023-01-29T08:50:17;5.47;;;3.40;;
32242;SDS011;18731;42.830;24.390;2023-01-29T08:52:43;6.00;;;3.05;;
32242;SDS011;18731;42.830;24.390;2023-01-29T08:55:09;5.10;;;3.60;;
32242;SDS011;18731;42.830;24.390;2023-01-29T08:57:36;7.88;;;4.15;;
32242;SDS011;18731;42.830;24.390;2023-01-29T09:00:03;5.93;;;3.58;;
32242;SDS011;18731;42.830;24.390;2023-01-29T09:02:30;5.10;;;3.60;;
32242;SDS011;18731;42.830;24.390;2023-01-29T09:04:56;5.80;;;3.83;;
32242;SDS011;18731;42.830;24.390;2023-01-29T09:07:21;4.72;;;3.30;;
32242;SDS011;18731;42.830;24.390;2023-01-29T09:09:47;5.63;;;3.67;;
32242;SDS011;18731;42.830;24.390;2023-01-29T09:12:12;5.78;;;3.80;;
32242;SDS011;18731;42.830;24.390;2023-01-29T09:14:38;5.95;;;3.58;;
32242;SDS011;18731;42.830;24.390;2023-01-29T09:17:04;6.85;;;4.07;;
32242;SDS011;18731;42.830;24.390;2023-01-29T09:19:29;9.40;;;4.18;;
32242;SDS011;18731;42.830;24.390;2023-01-29T09:21:55;6.07;;;3.88;;
32242;SDS011;18731;42.830;24.390;2023-01-29T09:24:20;5.93;;;3.80;;
32242;SDS011;18731;42.830;24.390;2023-01-29T09:26:46;6.97;;;4.28;;
32242;SDS011;18731;42.830;24.390;2023-01-29T09:29:12;8.25;;;4.20;;
32242;SDS011;18731;42.830;24.390;2023-01-29T09:31:37;5.43;;;3.70;;
32242;SDS011;18731;42.830;24.390;2023-01-29T09:34:03;6.32;;;4.32;;
32242;SDS011;18731;42.830;24.390;2023-01-29T09:36:29;7.18;;;4.25;;
32242;SDS011;18731;42.830;24.390;2023-01-29T09:38:55;7.35;;;4.32;;
32242;SDS011;18731;42.830;24.390;2023-01-29T09:44:36;7.03;;;3.88;;
32242;SDS011;18731;42.830;24.390;2023-01-29T09:47:28;6.18;;;4.00;;
32242;SDS011;18731;42.830;24.390;2023-01-29T09:50:01;6.40;;;4.30;;
32242;SDS011;18731;42.830;24.390;2023-01-29T09:52:36;6.68;;;3.88;;
32242;SDS011;18731;42.830;24.390;2023-01-29T09:57:49;6.47;;;4.05;;
32242;SDS011;18731;42.830;24.390;2023-01-29T10:00:39;7.25;;;4.43;;
32242;SDS011;18731;42.830;24.390;2023-01-29T10:03:17;6.18;;;4.38;;
32242;SDS011;18731;42.830;24.390;2023-01-29T10:19:35;7.53;;;4.75;;
32242;SDS011;18731;42.830;24.390;2023-01-29T10:24:40;8.38;;;5.55;;
32242;SDS011;18731;42.830;24.390;2023-01-29T10:27:16;10.55;;;5.70;;
32242;SDS011;18731;42.830;24.390;2023-01-29T10:29:44;6.45;;;4.88;;
32242;SDS011;18731;42.830;24.390;2023-01-29T10:32:14;8.00;;;4.97;;
32242;SDS011;18731;42.830;24.390;2023-01-29T10:37:24;8.75;;;5.50;;
32242;SDS011;18731;42.830;24.390;2023-01-29T10:39:56;6.95;;;4.80;;
32242;SDS011;18731;42.830;24.390;2023-01-29T10:45:35;5.65;;;4.03;;
32242;SDS011;18731;42.830;24.390;2023-01-29T10:56:51;8.90;;;5.35;;
32242;SDS011;18731;42.830;24.390;2023-01-29T11:02:00;10.70;;;6.20;;
32242;SDS011;18731;42.830;24.390;2023-01-29T11:04:27;11.18;;;6.22;;
32242;SDS011;18731;42.830;24.390;2023-01-29T11:06:55;13.85;;;6.47;;
32242;SDS011;18731;42.830;24.390;2023-01-29T11:12:04;10.93;;;6.47;;
32242;SDS011;18731;42.830;24.390;2023-01-29T11:14:50;9.27;;;5.88;;
32242;SDS011;18731;42.830;24.390;2023-01-29T11:17:23;8.50;;;5.28;;
32242;SDS011;18731;42.830;24.390;2023-01-29T11:19:51;8.38;;;5.20;;
32242;SDS011;18731;42.830;24.390;2023-01-29T11:22:20;7.68;;;5.30;;
32242;SDS011;18731;42.830;24.390;2023-01-29T11:27:49;6.75;;;5.05;;
32242;SDS011;18731;42.830;24.390;2023-01-29T11:30:20;9.45;;;6.10;;
32242;SDS011;18731;42.830;24.390;2023-01-29T11:32:59;12.10;;;7.13;;
32242;SDS011;18731;42.830;24.390;2023-01-29T11:35:38;14.52;;;7.95;;
32242;SDS011;18731;42.830;24.390;2023-01-29T11:40:42;11.10;;;7.15;;
32242;SDS011;18731;42.830;24.390;2023-01-29T11:43:18;10.13;;;6.22;;
32242;SDS011;18731;42.830;24.390;2023-01-29T11:45:44;11.25;;;7.57;;
32242;SDS011;18731;42.830;24.390;2023-01-29T11:48:15;11.05;;;7.38;;
32242;SDS011;18731;42.830;24.390;2023-01-29T11:50:42;11.20;;;7.45;;
32242;SDS011;18731;42.830;24.390;2023-01-29T11:53:30;10.27;;;6.90;;
32242;SDS011;18731;42.830;24.390;2023-01-29T11:58:45;10.65;;;7.32;;
32242;SDS011;18731;42.830;24.390;2023-01-29T12:01:13;12.48;;;8.23;;
32242;SDS011;18731;42.830;24.390;2023-01-29T12:03:43;14.40;;;8.60;;
32242;SDS011;18731;42.830;24.390;2023-01-29T12:06:17;17.27;;;10.67;;
32242;SDS011;18731;42.830;24.390;2023-01-29T12:08:54;19.27;;;11.48;;
32242;SDS011;18731;42.830;24.390;2023-01-29T12:11:26;17.95;;;10.77;;
32242;SDS011;18731;42.830;24.390;2023-01-29T12:13:55;14.10;;;9.30;;
32242;SDS011;18731;42.830;24.390;2023-01-29T12:22:02;16.42;;;9.70;;
32242;SDS011;18731;42.830;24.390;2023-01-29T12:24:37;14.80;;;9.60;;
32242;SDS011;18731;42.830;24.390;2023-01-29T12:27:18;16.90;;;10.50;;
32242;SDS011;18731;42.830;24.390;2023-01-29T12:30:10;30.15;;;12.15;;
32242;SDS011;18731;42.830;24.390;2023-01-29T12:35:42;14.38;;;9.02;;
32242;SDS011;18731;42.830;24.390;2023-01-29T12:38:18;15.18;;;8.57;;
32242;SDS011;18731;42.830;24.390;2023-01-29T12:40:47;13.00;;;8.30;;
32242;SDS011;18731;42.830;24.390;2023-01-29T12:43:23;15.35;;;9.60;;
32242;SDS011;18731;42.830;24.390;2023-01-29T12:45:57;17.67;;;10.20;;
32242;SDS011;18731;42.830;24.390;2023-01-29T12:48:30;20.73;;;11.35;;
32242;SDS011;18731;42.830;24.390;2023-01-29T12:51:13;16.58;;;10.35;;
32242;SDS011;18731;42.830;24.390;2023-01-29T12:53:50;23.23;;;12.73;;
32242;SDS011;18731;42.830;24.390;2023-01-29T12:56:50;22.20;;;12.20;;
32242;SDS011;18731;42.830;24.390;2023-01-29T13:01:58;30.30;;;15.23;;
32242;SDS011;18731;42.830;24.390;2023-01-29T13:04:41;17.95;;;10.85;;
32242;SDS011;18731;42.830;24.390;2023-01-29T13:07:14;15.82;;;9.85;;
32242;SDS011;18731;42.830;24.390;2023-01-29T13:09:45;14.27;;;8.85;;
32242;SDS011;18731;42.830;24.390;2023-01-29T13:12:18;15.13;;;9.43;;
32242;SDS011;18731;42.830;24.390;2023-01-29T13:17:41;15.15;;;9.10;;
32242;SDS011;18731;42.830;24.390;2023-01-29T13:20:14;15.05;;;8.80;;
32242;SDS011;18731;42.830;24.390;2023-01-29T13:22:44;14.35;;;8.57;;
32242;SDS011;18731;42.830;24.390;2023-01-29T13:25:17;13.93;;;8.85;;
32242;SDS011;18731;42.830;24.390;2023-01-29T13:27:45;13.68;;;7.97;;
32242;SDS011;18731;42.830;24.390;2023-01-29T13:30:32;12.98;;;8.45;;
32242;SDS011;18731;42.830;24.390;2023-01-29T13:33:02;13.07;;;7.68;;
32242;SDS011;18731;42.830;24.390;2023-01-29T13:35:35;14.45;;;8.35;;
32242;SDS011;18731;42.830;24.390;2023-01-29T13:38:04;22.38;;;11.73;;
32242;SDS011;18731;42.830;24.390;2023-01-29T13:40:47;17.52;;;9.75;;
32242;SDS011;18731;42.830;24.390;2023-01-29T13:43:20;18.17;;;10.32;;
32242;SDS011;18731;42.830;24.390;2023-01-29T13:45:47;18.73;;;10.73;;
32242;SDS011;18731;42.830;24.390;2023-01-29T13:48:28;17.35;;;10.00;;
32242;SDS011;18731;42.830;24.390;2023-01-29T13:51:02;18.75;;;10.55;;
32242;SDS011;18731;42.830;24.390;2023-01-29T13:53:40;16.98;;;10.30;;
32242;SDS011;18731;42.830;24.390;2023-01-29T13:58:57;20.70;;;11.85;;
32242;SDS011;18731;42.830;24.390;2023-01-29T14:06:44;23.17;;;13.52;;
32242;SDS011;18731;42.830;24.390;2023-01-29T14:11:57;22.58;;;13.38;;
32242;SDS011;18731;42.830;24.390;2023-01-29T14:17:14;21.80;;;12.23;;
32242;SDS011;18731;42.830;24.390;2023-01-29T14:19:51;20.10;;;12.35;;
32242;SDS011;18731;42.830;24.390;2023-01-29T14:22:20;23.20;;;13.43;;
32242;SDS011;18731;42.830;24.390;2023-01-29T14:24:49;26.17;;;14.23;;
32242;SDS011;18731;42.830;24.390;2023-01-29T14:27:20;27.23;;;15.85;;
32242;SDS011;18731;42.830;24.390;2023-01-29T14:29:49;31.40;;;16.85;;
32242;SDS011;18731;42.830;24.390;2023-01-29T14:32:21;29.42;;;16.52;;
32242;SDS011;18731;42.830;24.390;2023-01-29T14:34:50;28.27;;;16.67;;
32242;SDS011;18731;42.830;24.390;2023-01-29T14:37:20;33.75;;;19.10;;
32242;SDS011;18731;42.830;24.390;2023-01-29T14:39:54;33.00;;;18.52;;
32242;SDS011;18731;42.830;24.390;2023-01-29T14:45:52;36.20;;;18.25;;
32242;SDS011;18731;42.830;24.390;2023-01-29T14:48:19;27.77;;;15.02;;
32242;SDS011;18731;42.830;24.390;2023-01-29T14:51:10;30.95;;;16.20;;
32242;SDS011;18731;42.830;24.390;2023-01-29T14:53:52;45.88;;;23.45;;
32242;SDS011;18731;42.830;24.390;2023-01-29T14:56:45;37.45;;;18.77;;
32242;SDS011;18731;42.830;24.390;2023-01-29T14:59:32;19.13;;;11.57;;
32242;SDS011;18731;42.830;24.390;2023-01-29T15:02:11;20.90;;;12.23;;
32242;SDS011;18731;42.830;24.390;2023-01-29T15:04:47;23.38;;;12.73;;
32242;SDS011;18731;42.830;24.390;2023-01-29T15:11:02;26.08;;;15.23;;
32242;SDS011;18731;42.830;24.390;2023-01-29T15:14:02;28.20;;;15.63;;
32242;SDS011;18731;42.830;24.390;2023-01-29T15:16:32;22.47;;;13.47;;
32242;SDS011;18731;42.830;24.390;2023-01-29T15:19:15;32.67;;;16.60;;
32242;SDS011;18731;42.830;24.390;2023-01-29T15:22:07;45.33;;;21.27;;
32242;SDS011;18731;42.830;24.390;2023-01-29T15:24:38;27.25;;;15.60;;
32242;SDS011;18731;42.830;24.390;2023-01-29T15:27:06;27.98;;;15.35;;
32242;SDS011;18731;42.830;24.390;2023-01-29T15:29:39;32.47;;;18.83;;
32242;SDS011;18731;42.830;24.390;2023-01-29T15:32:09;32.42;;;17.63;;
32242;SDS011;18731;42.830;24.390;2023-01-29T15:34:57;30.40;;;17.33;;
32242;SDS011;18731;42.830;24.390;2023-01-29T15:37:26;25.63;;;15.18;;
32242;SDS011;18731;42.830;24.390;2023-01-29T15:39:53;24.65;;;14.65;;
32242;SDS011;18731;42.830;24.390;2023-01-29T15:42:19;27.13;;;15.30;;
32242;SDS011;18731;42.830;24.390;2023-01-29T15:44:50;34.55;;;19.05;;
32242;SDS011;18731;42.830;24.390;2023-01-29T15:47:19;43.72;;;23.60;;
32242;SDS011;18731;42.830;24.390;2023-01-29T15:49:49;38.75;;;21.48;;
32242;SDS011;18731;42.830;24.390;2023-01-29T15:52:29;40.85;;;22.73;;
32242;SDS011;18731;42.830;24.390;2023-01-29T15:55:00;40.92;;;22.08;;
32242;SDS011;18731;42.830;24.390;2023-01-29T15:57:32;45.00;;;23.65;;
32242;SDS011;18731;42.830;24.390;2023-01-29T16:00:02;47.03;;;25.63;;
32242;SDS011;18731;42.830;24.390;2023-01-29T16:02:36;55.20;;;27.30;;
32242;SDS011;18731;42.830;24.390;2023-01-29T16:05:06;53.65;;;27.50;;
32242;SDS011;18731;42.830;24.390;2023-01-29T16:07:47;51.15;;;26.85;;
32242;SDS011;18731;42.830;24.390;2023-01-29T16:10:18;51.72;;;28.20;;
32242;SDS011;18731;42.830;24.390;2023-01-29T16:12:46;61.30;;;29.55;;
32242;SDS011;18731;42.830;24.390;2023-01-29T16:17:54;55.63;;;28.60;;
32242;SDS011;18731;42.830;24.390;2023-01-29T16:20:38;58.40;;;28.20;;
32242;SDS011;18731;42.830;24.390;2023-01-29T16:23:14;53.75;;;27.65;;
32242;SDS011;18731;42.830;24.390;2023-01-29T16:28:08;57.15;;;28.38;;
32242;SDS011;18731;42.830;24.390;2023-01-29T16:30:35;59.38;;;30.92;;
32242;SDS011;18731;42.830;24.390;2023-01-29T16:33:03;68.57;;;31.95;;
32242;SDS011;18731;42.830;24.390;2023-01-29T16:35:30;66.45;;;31.83;;
32242;SDS011;18731;42.830;24.390;2023-01-29T16:38:01;57.80;;;31.55;;
32242;SDS011;18731;42.830;24.390;2023-01-29T16:40:31;60.22;;;30.13;;
32242;SDS011;18731;42.830;24.390;2023-01-29T16:46:03;50.72;;;27.10;;
32242;SDS011;18731;42.830;24.390;2023-01-29T16:48:39;52.95;;;25.33;;
32242;SDS011;18731;42.830;24.390;2023-01-29T16:51:11;53.55;;;28.05;;
32242;SDS011;18731;42.830;24.390;2023-01-29T16:53:39;59.65;;;30.13;;
32242;SDS011;18731;42.830;24.390;2023-01-29T16:56:16;58.25;;;28.15;;
32242;SDS011;18731;42.830;24.390;2023-01-29T16:58:50;48.58;;;25.45;;
32242;SDS011;18731;42.830;24.390;2023-01-29T17:01:17;49.03;;;25.95;;
32242;SDS011;18731;42.830;24.390;2023-01-29T17:03:46;47.08;;;26.65;;
32242;SDS011;18731;42.830;24.390;2023-01-29T17:06:22;57.65;;;31.08;;
32242;SDS011;18731;42.830;24.390;2023-01-29T17:08:49;56.38;;;28.75;;
32242;SDS011;18731;42.830;24.390;2023-01-29T17:11:23;52.78;;;27.73;;
32242;SDS011;18731;42.830;24.390;2023-01-29T17:13:54;55.08;;;27.38;;
32242;SDS011;18731;42.830;24.390;2023-01-29T17:16:23;46.38;;;24.27;;
32242;SDS011;18731;42.830;24.390;2023-01-29T17:18:51;48.95;;;26.73;;
32242;SDS011;18731;42.830;24.390;2023-01-29T17:21:17;52.55;;;26.95;;
32242;SDS011;18731;42.830;24.390;2023-01-29T17:23:43;54.83;;;29.10;;
32242;SDS011;18731;42.830;24.390;2023-01-29T17:26:10;56.17;;;29.70;;
32242;SDS011;18731;42.830;24.390;2023-01-29T17:28:37;49.45;;;25.00;;
32242;SDS011;18731;42.830;24.390;2023-01-29T17:31:04;47.35;;;24.80;;
32242;SDS011;18731;42.830;24.390;2023-01-29T17:33:31;43.35;;;22.60;;
32242;SDS011;18731;42.830;24.390;2023-01-29T17:35:57;39.55;;;20.08;;
32242;SDS011;18731;42.830;24.390;2023-01-29T17:38:23;38.55;;;19.63;;
32242;SDS011;18731;42.830;24.390;2023-01-29T17:40:50;39.22;;;21.15;;
32242;SDS011;18731;42.830;24.390;2023-01-29T17:43:20;42.25;;;22.98;;
32242;SDS011;18731;42.830;24.390;2023-01-29T17:45:45;39.13;;;21.55;;
32242;SDS011;18731;42.830;24.390;2023-01-29T17:48:18;41.35;;;22.42;;
32242;SDS011;18731;42.830;24.390;2023-01-29T17:50:48;42.55;;;22.85;;
32242;SDS011;18731;42.830;24.390;2023-01-29T17:53:17;49.75;;;25.02;;
32242;SDS011;18731;42.830;24.390;2023-01-29T17:55:44;51.05;;;26.00;;
32242;SDS011;18731;42.830;24.390;2023-01-29T17:58:17;47.20;;;26.00;;
32242;SDS011;18731;42.830;24.390;2023-01-29T18:00:43;52.22;;;28.58;;
32242;SDS011;18731;42.830;24.390;2023-01-29T18:03:09;53.03;;;28.00;;
32242;SDS011;18731;42.830;24.390;2023-01-29T18:05:34;52.33;;;28.15;;
32242;SDS011;18731;42.830;24.390;2023-01-29T18:08:00;51.65;;;27.30;;
32242;SDS011;18731;42.830;24.390;2023-01-29T18:10:26;52.15;;;27.92;;
32242;SDS011;18731;42.830;24.390;2023-01-29T18:12:52;53.15;;;29.15;;
32242;SDS011;18731;42.830;24.390;2023-01-29T18:15:17;59.50;;;31.30;;
32242;SDS011;18731;42.830;24.390;2023-01-29T18:17:43;62.20;;;32.72;;
32242;SDS011;18731;42.830;24.390;2023-01-29T18:20:14;57.35;;;30.77;;
32242;SDS011;18731;42.830;24.390;2023-01-29T18:22:43;44.88;;;24.33;;
32242;SDS011;18731;42.830;24.390;2023-01-29T18:25:09;50.75;;;27.65;;
32242;SDS011;18731;42.830;24.390;2023-01-29T18:27:35;64.30;;;32.70;;
32242;SDS011;18731;42.830;24.390;2023-01-29T18:30:01;62.05;;;32.83;;
32242;SDS011;18731;42.830;24.390;2023-01-29T18:32:26;108.72;;;43.45;;
32242;SDS011;18731;42.830;24.390;2023-01-29T18:34:52;97.00;;;39.78;;
32242;SDS011;18731;42.830;24.390;2023-01-29T18:37:18;88.80;;;39.67;;
32242;SDS011;18731;42.830;24.390;2023-01-29T18:39:43;72.68;;;35.42;;
32242;SDS011;18731;42.830;24.390;2023-01-29T18:42:09;78.57;;;39.15;;
32242;SDS011;18731;42.830;24.390;2023-01-29T18:44:34;83.93;;;38.92;;
32242;SDS011;18731;42.830;24.390;2023-01-29T18:47:00;70.03;;;35.25;;
32242;SDS011;18731;42.830;24.390;2023-01-29T18:49:25;74.25;;;37.50;;
32242;SDS011;18731;42.830;24.390;2023-01-29T18:51:51;75.75;;;37.10;;
32242;SDS011;18731;42.830;24.390;2023-01-29T18:54:16;71.53;;;35.00;;
32242;SDS011;18731;42.830;24.390;2023-01-29T18:56:44;71.47;;;35.30;;
32242;SDS011;18731;42.830;24.390;2023-01-29T18:59:09;68.18;;;36.88;;
32242;SDS011;18731;42.830;24.390;2023-01-29T19:01:35;70.97;;;35.75;;
32242;SDS011;18731;42.830;24.390;2023-01-29T19:04:00;69.28;;;34.83;;
32242;SDS011;18731;42.830;24.390;2023-01-29T19:06:26;66.57;;;34.58;;
32242;SDS011;18731;42.830;24.390;2023-01-29T19:08:52;67.07;;;35.28;;
32242;SDS011;18731;42.830;24.390;2023-01-29T19:11:17;68.70;;;35.33;;
32242;SDS011;18731;42.830;24.390;2023-01-29T19:13:43;70.60;;;36.45;;
32242;SDS011;18731;42.830;24.390;2023-01-29T19:16:10;82.97;;;39.75;;
32242;SDS011;18731;42.830;24.390;2023-01-29T19:18:37;74.40;;;36.22;;
32242;SDS011;18731;42.830;24.390;2023-01-29T19:21:06;75.22;;;37.72;;
32242;SDS011;18731;42.830;24.390;2023-01-29T19:23:34;77.65;;;38.08;;
32242;SDS011;18731;42.830;24.390;2023-01-29T19:26:00;75.30;;;38.10;;
32242;SDS011;18731;42.830;24.390;2023-01-29T19:28:25;89.85;;;45.30;;
32242;SDS011;18731;42.830;24.390;2023-01-29T19:30:51;92.90;;;46.65;;
32242;SDS011;18731;42.830;24.390;2023-01-29T19:33:17;96.75;;;47.03;;
32242;SDS011;18731;42.830;24.390;2023-01-29T19:35:43;94.72;;;47.10;;
32242;SDS011;18731;42.830;24.390;2023-01-29T19:38:09;90.60;;;44.60;;
32242;SDS011;18731;42.830;24.390;2023-01-29T19:40:35;90.95;;;45.22;;
32242;SDS011;18731;42.830;24.390;2023-01-29T19:43:02;94.10;;;45.63;;
32242;SDS011;18731;42.830;24.390;2023-01-29T19:45:28;87.05;;;43.67;;
32242;SDS011;18731;42.830;24.390;2023-01-29T19:47:54;87.60;;;42.55;;
32242;SDS011;18731;42.830;24.390;2023-01-29T19:50:19;86.15;;;41.45;;
32242;SDS011;18731;42.830;24.390;2023-01-29T19:52:46;90.00;;;44.08;;
32242;SDS011;18731;42.830;24.390;2023-01-29T19:55:12;92.13;;;46.15;;
32242;SDS011;18731;42.830;24.390;2023-01-29T19:57:38;94.60;;;45.75;;
32242;SDS011;18731;42.830;24.390;2023-01-29T20:00:04;94.63;;;48.50;;
32242;SDS011;18731;42.830;24.390;2023-01-29T20:02:30;97.03;;;47.20;;
32242;SDS011;18731;42.830;24.390;2023-01-29T20:04:56;103.40;;;49.75;;
32242;SDS011;18731;42.830;24.390;2023-01-29T20:07:25;100.28;;;49.45;;
32242;SDS011;18731;42.830;24.390;2023-01-29T20:09:51;95.15;;;45.95;;
32242;SDS011;18731;42.830;24.390;2023-01-29T20:12:17;95.25;;;47.58;;
32242;SDS011;18731;42.830;24.390;2023-01-29T20:14:42;96.20;;;46.70;;
32242;SDS011;18731;42.830;24.390;2023-01-29T20:17:16;78.63;;;41.05;;
32242;SDS011;18731;42.830;24.390;2023-01-29T20:19:43;84.60;;;42.55;;
32242;SDS011;18731;42.830;24.390;2023-01-29T20:22:09;85.35;;;44.28;;